Time;durP1;ratioP1;P1;durP2;ratioP2;P2;SDS_P1;SDS_P2;PMS_P1;PMS_P2;Temp;Humidity;BMP_temperature;BMP_pressure;BME280_temperature;BME280_humidity;BME280_pressure;Samples;Min_cycle;Max_cycle;Signal;HPM_P1;HPM_P2
2022/07/23 00:00:03;;;;;;;0.90;0.55;;;15.10;99.90;;;;;;5034609;28;20041;-66
2022/07/23 00:02:29;;;;;;;0.73;0.40;;;15.10;99.90;;;;;;5046795;28;20484;-66
2022/07/23 00:04:54;;;;;;;0.10;0.10;;;15.20;99.90;;;;;;5043075;28;20053;-66
2022/07/23 00:07:20;;;;;;;0.30;0.30;;;15.20;99.90;;;;;;5040720;28;20051;-66
2022/07/23 00:09:46;;;;;;;0.10;0.10;;;15.10;99.90;;;;;;5039548;28;20045;-66
2022/07/23 00:12:11;;;;;;;0.43;0.43;;;15.10;99.90;;;;;;5037207;28;20033;-66
2022/07/23 00:14:37;;;;;;;0.25;0.25;;;15.00;99.90;;;;;;5034930;28;20037;-66
2022/07/23 00:17:02;;;;;;;0.03;0.03;;;15.00;99.90;;;;;;5046129;28;20057;-66
2022/07/23 00:19:28;;;;;;;0.10;0.10;;;14.90;99.90;;;;;;5036014;28;20195;-66
2022/07/23 00:21:54;;;;;;;0.10;0.10;;;14.80;99.90;;;;;;5027281;28;20045;-66
2022/07/23 00:24:20;;;;;;;0.30;0.30;;;14.80;99.90;;;;;;5040107;28;20048;-66
2022/07/23 00:26:45;;;;;;;0.68;0.50;;;14.80;99.90;;;;;;5045486;28;20053;-66
2022/07/23 00:29:11;;;;;;;0.10;0.10;;;14.80;99.90;;;;;;5046149;28;20524;-66
2022/07/23 00:31:37;;;;;;;0.10;0.10;;;14.80;99.90;;;;;;5037161;28;20068;-66
2022/07/23 00:34:02;;;;;;;0.20;0.20;;;14.70;99.90;;;;;;5039550;28;20416;-66
2022/07/23 00:36:28;;;;;;;0.35;0.35;;;14.70;99.90;;;;;;5039556;28;20072;-66
2022/07/23 00:38:54;;;;;;;0.05;0.05;;;14.70;99.90;;;;;;5036845;28;20056;-66
2022/07/23 00:41:19;;;;;;;0.13;0.13;;;14.60;99.90;;;;;;5053847;28;20111;-66
2022/07/23 00:43:45;;;;;;;0.10;0.10;;;14.70;99.90;;;;;;5045894;28;20041;-66
2022/07/23 00:46:11;;;;;;;0.43;0.43;;;14.50;99.90;;;;;;5040288;28;20072;-66
2022/07/23 00:48:36;;;;;;;0.10;0.10;;;14.50;99.90;;;;;;5034474;28;20400;-65
2022/07/23 00:51:02;;;;;;;0.40;0.40;;;14.40;99.90;;;;;;5045472;28;20084;-66
2022/07/23 00:53:28;;;;;;;0.30;0.30;;;14.40;99.90;;;;;;5055760;28;20049;-66
2022/07/23 00:55:54;;;;;;;0.00;0.00;;;14.40;99.90;;;;;;5029430;28;20068;-66
2022/07/23 00:58:19;;;;;;;0.10;0.10;;;14.40;99.90;;;;;;5028641;28;20812;-66
2022/07/23 01:00:45;;;;;;;0.10;0.10;;;14.40;99.90;;;;;;5039215;28;20480;-66
2022/07/23 01:03:11;;;;;;;0.10;0.10;;;14.40;99.90;;;;;;5039771;28;20084;-66
2022/07/23 01:05:37;;;;;;;0.20;0.20;;;14.30;99.90;;;;;;5031200;28;20488;-67
2022/07/23 01:08:03;;;;;;;0.22;0.22;;;14.30;99.90;;;;;;5043392;28;20052;-67
2022/07/23 01:10:32;;;;;;;0.20;0.20;;;14.30;99.90;;;;;;5045124;28;20056;-67
2022/07/23 01:13:06;;;;;;;0.30;0.30;;;14.20;99.90;;;;;;5036413;28;20106;-67
2022/07/23 01:15:33;;;;;;;0.90;0.90;;;14.10;99.90;;;;;;5035974;28;20072;-66
2022/07/23 01:17:59;;;;;;;0.20;0.20;;;14.10;99.90;;;;;;5052166;28;20407;-67
2022/07/23 01:20:25;;;;;;;0.10;0.10;;;14.10;99.90;;;;;;5031674;28;20562;-67
2022/07/23 01:22:52;;;;;;;0.43;0.43;;;14.10;99.90;;;;;;5042495;28;20044;-66
2022/07/23 01:25:18;;;;;;;0.10;0.10;;;14.10;99.90;;;;;;5038884;28;20041;-67
2022/07/23 01:27:44;;;;;;;0.40;0.40;;;14.00;99.90;;;;;;5046367;28;20037;-67
2022/07/23 01:30:10;;;;;;;0.20;0.20;;;14.00;99.90;;;;;;5046920;28;20042;-67
2022/07/23 01:32:36;;;;;;;0.20;0.20;;;14.00;99.90;;;;;;5036108;28;20088;-66
2022/07/23 01:35:01;;;;;;;0.10;0.10;;;14.00;99.90;;;;;;5042069;28;20567;-67
2022/07/23 01:37:27;;;;;;;0.10;0.10;;;14.00;99.90;;;;;;5059882;28;20374;-67
2022/07/23 01:39:53;;;;;;;0.10;0.10;;;14.00;99.90;;;;;;5049969;28;20540;-67
2022/07/23 01:42:18;;;;;;;0.15;0.15;;;14.00;99.90;;;;;;5042503;28;20052;-67
2022/07/23 01:44:44;;;;;;;0.10;0.10;;;14.00;99.90;;;;;;5033735;28;20080;-66
2022/07/23 01:47:10;;;;;;;0.10;0.10;;;14.00;99.90;;;;;;5042942;28;20103;-66
2022/07/23 01:49:35;;;;;;;0.10;0.10;;;14.00;99.90;;;;;;5048489;28;20033;-66
2022/07/23 01:52:01;;;;;;;0.10;0.10;;;14.10;99.90;;;;;;5032677;28;20076;-67
2022/07/23 01:54:31;;;;;;;0.35;0.35;;;14.10;99.90;;;;;;5040603;28;20037;-66
2022/07/23 01:56:57;;;;;;;0.00;0.00;;;14.20;99.90;;;;;;5046865;28;20087;-66
2022/07/23 01:59:23;;;;;;;0.15;0.15;;;14.20;99.90;;;;;;5033170;28;20100;-67
2022/07/23 02:01:50;;;;;;;0.13;0.13;;;14.30;99.90;;;;;;5042731;28;20045;-66
2022/07/23 02:04:17;;;;;;;0.20;0.20;;;14.30;99.90;;;;;;5033079;28;20098;-67
2022/07/23 02:06:42;;;;;;;0.00;0.00;;;14.30;99.90;;;;;;5040615;28;20046;-67
2022/07/23 02:09:08;;;;;;;0.20;0.20;;;14.30;99.90;;;;;;5039368;28;20140;-67
2022/07/23 02:11:34;;;;;;;0.30;0.30;;;14.40;99.90;;;;;;5037186;28;20049;-67
2022/07/23 02:13:59;;;;;;;0.10;0.10;;;14.40;99.90;;;;;;5038424;28;20037;-67
2022/07/23 02:16:25;;;;;;;0.30;0.30;;;14.40;99.90;;;;;;5049152;28;20048;-67
2022/07/23 02:18:50;;;;;;;0.13;0.13;;;14.40;99.90;;;;;;5048046;28;20048;-67
2022/07/23 02:21:16;;;;;;;0.28;0.20;;;14.30;99.90;;;;;;5041847;28;20450;-66
2022/07/23 02:23:41;;;;;;;0.10;0.10;;;14.40;99.90;;;;;;5043812;28;20047;-67
2022/07/23 02:26:07;;;;;;;0.10;0.10;;;14.30;99.90;;;;;;5046758;28;20041;-66
2022/07/23 02:28:32;;;;;;;0.10;0.10;;;14.20;99.90;;;;;;5045288;28;20029;-67
2022/07/23 02:30:58;;;;;;;0.10;0.10;;;14.20;99.90;;;;;;5037472;28;20049;-67
2022/07/23 02:33:24;;;;;;;0.22;0.22;;;14.20;99.90;;;;;;5045751;28;20163;-66
2022/07/23 02:35:49;;;;;;;0.28;0.15;;;14.20;99.90;;;;;;5033252;28;20041;-67
2022/07/23 02:38:15;;;;;;;0.10;0.10;;;14.10;99.90;;;;;;5043457;28;20067;-66
2022/07/23 02:40:40;;;;;;;0.10;0.10;;;14.00;99.90;;;;;;5048157;28;20072;-67
2022/07/23 02:43:06;;;;;;;0.22;0.22;;;14.00;99.90;;;;;;5036966;28;20688;-67
2022/07/23 02:45:32;;;;;;;0.10;0.10;;;14.00;99.90;;;;;;5044539;28;20052;-66
2022/07/23 02:47:57;;;;;;;0.10;0.10;;;14.00;99.90;;;;;;5039252;28;20575;-66
2022/07/23 02:50:23;;;;;;;0.10;0.10;;;14.00;99.90;;;;;;5038935;28;20041;-66
2022/07/23 02:52:48;;;;;;;0.00;0.00;;;14.00;99.90;;;;;;5047148;28;20060;-66
2022/07/23 02:55:14;;;;;;;0.10;0.10;;;13.90;99.90;;;;;;5045454;28;20055;-67
2022/07/23 02:57:40;;;;;;;0.10;0.10;;;13.90;99.90;;;;;;5040543;28;20111;-67
2022/07/23 03:00:07;;;;;;;0.10;0.10;;;13.90;99.90;;;;;;5032855;28;20553;-67
2022/07/23 03:02:32;;;;;;;0.10;0.10;;;13.90;99.90;;;;;;5045520;28;20040;-66
2022/07/23 03:04:58;;;;;;;0.00;0.00;;;13.90;99.90;;;;;;5037741;28;20053;-67
2022/07/23 03:07:24;;;;;;;0.00;0.00;;;13.90;99.90;;;;;;5028261;28;20046;-67
2022/07/23 03:09:49;;;;;;;0.20;0.20;;;13.80;99.90;;;;;;5045008;28;20048;-67
2022/07/23 03:12:15;;;;;;;0.10;0.10;;;13.80;99.90;;;;;;5036053;28;20044;-67
2022/07/23 03:14:41;;;;;;;0.10;0.10;;;13.80;99.90;;;;;;5045616;28;20044;-66
2022/07/23 03:17:07;;;;;;;0.00;0.00;;;13.80;99.90;;;;;;5045693;28;20040;-66
2022/07/23 03:19:33;;;;;;;0.10;0.10;;;13.80;99.90;;;;;;5062386;28;20075;-67
2022/07/23 03:21:58;;;;;;;0.20;0.20;;;13.80;99.90;;;;;;5037749;28;20052;-67
2022/07/23 03:24:53;;;;;;;0.05;0.05;;;13.80;99.90;;;;;;5044883;28;20473;-66
2022/07/23 03:27:09;;;;;;;0.10;0.10;;;13.70;99.90;;;;;;5040716;28;20041;-67
2022/07/23 03:29:36;;;;;;;0.85;0.85;;;13.80;99.90;;;;;;5035102;28;20044;-66
2022/07/23 03:32:03;;;;;;;0.63;0.30;;;13.70;99.90;;;;;;5046050;28;20044;-67
2022/07/23 03:34:28;;;;;;;0.10;0.10;;;13.70;99.90;;;;;;5044972;28;20068;-67
2022/07/23 03:36:54;;;;;;;0.00;0.00;;;13.70;99.90;;;;;;5030873;28;20049;-67
2022/07/23 03:39:19;;;;;;;0.10;0.10;;;13.70;99.90;;;;;;5062027;28;20053;-67
2022/07/23 03:41:45;;;;;;;0.10;0.10;;;13.60;99.90;;;;;;5035053;28;20047;-66
2022/07/23 03:44:10;;;;;;;0.70;0.47;;;13.60;99.90;;;;;;5037804;28;20045;-66
2022/07/23 03:46:36;;;;;;;0.10;0.10;;;13.70;99.90;;;;;;5040263;28;20047;-67
2022/07/23 03:49:02;;;;;;;0.13;0.13;;;13.60;99.90;;;;;;5043146;28;20857;-67
2022/07/23 03:51:27;;;;;;;5.40;0.52;;;13.60;99.90;;;;;;5040106;28;20044;-67
2022/07/23 03:53:54;;;;;;;0.10;0.10;;;13.60;99.90;;;;;;5041707;28;20100;-65
2022/07/23 03:56:19;;;;;;;0.10;0.10;;;13.60;99.90;;;;;;5038095;28;20076;-65
2022/07/23 03:58:45;;;;;;;0.00;0.00;;;13.60;99.90;;;;;;5045159;28;20049;-65
2022/07/23 04:01:11;;;;;;;0.10;0.10;;;13.60;99.90;;;;;;5042436;28;20091;-65
2022/07/23 04:03:37;;;;;;;0.98;0.65;;;13.60;99.90;;;;;;5035482;28;20048;-65
2022/07/23 04:06:03;;;;;;;0.20;0.20;;;13.60;99.90;;;;;;5055232;28;20041;-65
2022/07/23 04:08:28;;;;;;;0.10;0.10;;;13.60;99.90;;;;;;5039071;28;20041;-65
2022/07/23 04:10:54;;;;;;;1.40;0.95;;;13.70;99.90;;;;;;5028352;28;20065;-65
2022/07/23 04:13:20;;;;;;;0.10;0.10;;;13.70;99.90;;;;;;5040241;28;20037;-65
2022/07/23 04:15:46;;;;;;;0.63;0.63;;;13.80;99.90;;;;;;5028371;28;20095;-65
2022/07/23 04:18:11;;;;;;;3.97;1.23;;;13.80;99.90;;;;;;5038367;28;20465;-65
2022/07/23 04:20:37;;;;;;;0.10;0.10;;;13.80;99.90;;;;;;5039187;28;20037;-65
2022/07/23 04:23:02;;;;;;;0.10;0.10;;;13.80;99.90;;;;;;5060912;28;20068;-65
2022/07/23 04:25:28;;;;;;;2.30;0.77;;;13.80;99.90;;;;;;5046036;28;20831;-65
2022/07/23 04:27:54;;;;;;;0.40;0.40;;;13.80;99.90;;;;;;5041342;28;20049;-65
2022/07/23 04:30:20;;;;;;;0.10;0.10;;;13.80;99.90;;;;;;5045932;28;20451;-65
2022/07/23 04:32:45;;;;;;;0.30;0.30;;;13.90;99.90;;;;;;5045365;28;20407;-65
2022/07/23 04:35:11;;;;;;;0.73;0.68;;;13.90;99.90;;;;;;5045743;28;20044;-65
2022/07/23 04:37:36;;;;;;;0.47;0.47;;;13.90;99.90;;;;;;5033287;28;20081;-65
2022/07/23 04:40:02;;;;;;;0.20;0.20;;;13.90;99.90;;;;;;5034297;28;20045;-66
2022/07/23 04:42:28;;;;;;;0.10;0.10;;;13.90;99.90;;;;;;5038755;28;20192;-66
2022/07/23 04:44:53;;;;;;;0.00;0.00;;;14.00;99.90;;;;;;5035196;28;20091;-66
2022/07/23 04:47:19;;;;;;;2.65;1.10;;;14.00;99.90;;;;;;5039079;28;20360;-66
2022/07/23 04:49:44;;;;;;;0.00;0.00;;;14.00;99.90;;;;;;5034829;28;20040;-66
2022/07/23 04:52:10;;;;;;;0.10;0.10;;;14.00;99.90;;;;;;5037325;28;20641;-66
2022/07/23 04:54:35;;;;;;;0.15;0.15;;;14.00;99.90;;;;;;5036247;28;20517;-67
2022/07/23 04:57:01;;;;;;;0.20;0.10;;;14.10;99.90;;;;;;5047288;28;20051;-67
2022/07/23 04:59:27;;;;;;;0.20;0.20;;;14.10;99.90;;;;;;5034781;28;20090;-66
2022/07/23 05:01:52;;;;;;;0.30;0.30;;;14.10;99.90;;;;;;5032504;28;20120;-66
2022/07/23 05:04:18;;;;;;;0.10;0.10;;;14.10;99.90;;;;;;5046196;28;20045;-66
2022/07/23 05:06:43;;;;;;;0.28;0.28;;;14.10;99.90;;;;;;5043190;28;20053;-66
2022/07/23 05:09:09;;;;;;;0.20;0.20;;;14.20;99.90;;;;;;5043394;28;20059;-67
2022/07/23 05:11:34;;;;;;;2.33;0.57;;;14.30;99.90;;;;;;5048600;28;20094;-66
2022/07/23 05:14:00;;;;;;;0.10;0.10;;;14.30;99.90;;;;;;5041732;28;20080;-67
2022/07/23 05:16:26;;;;;;;0.03;0.03;;;14.40;99.90;;;;;;5031183;28;20045;-67
2022/07/23 05:18:51;;;;;;;0.00;0.00;;;14.40;99.90;;;;;;5044425;28;20042;-66
2022/07/23 05:21:17;;;;;;;0.90;0.90;;;14.40;99.90;;;;;;5037926;28;20769;-66
2022/07/23 05:23:42;;;;;;;0.45;0.45;;;14.40;99.90;;;;;;5047811;28;20053;-66
2022/07/23 05:26:08;;;;;;;0.10;0.10;;;14.50;99.90;;;;;;5038895;28;20098;-66
2022/07/23 05:28:33;;;;;;;0.10;0.10;;;14.60;99.90;;;;;;5041807;28;20087;-67
2022/07/23 05:30:59;;;;;;;0.05;0.05;;;14.60;99.90;;;;;;5031019;28;20416;-67
2022/07/23 05:33:24;;;;;;;0.00;0.00;;;14.60;99.90;;;;;;5030803;28;20048;-67
2022/07/23 05:35:50;;;;;;;0.10;0.10;;;14.70;99.90;;;;;;5044797;28;20045;-67
2022/07/23 05:38:16;;;;;;;0.10;0.10;;;14.70;99.90;;;;;;5032245;28;20440;-66
2022/07/23 05:40:41;;;;;;;3.40;1.10;;;14.70;99.90;;;;;;5036292;28;20042;-67
2022/07/23 05:43:07;;;;;;;0.00;0.00;;;14.80;99.90;;;;;;5036161;28;20472;-67
2022/07/23 05:45:32;;;;;;;0.10;0.10;;;14.90;99.90;;;;;;5028754;28;20040;-67
2022/07/23 05:47:58;;;;;;;0.10;0.10;;;14.90;99.90;;;;;;5032770;28;20107;-67
2022/07/23 05:50:23;;;;;;;0.10;0.10;;;14.90;99.90;;;;;;5042310;28;20083;-67
2022/07/23 05:52:49;;;;;;;0.00;0.00;;;15.00;99.90;;;;;;5032619;28;20069;-67
2022/07/23 05:55:14;;;;;;;0.10;0.10;;;15.00;99.90;;;;;;5035820;28;20044;-67
2022/07/23 05:57:40;;;;;;;0.10;0.10;;;15.10;99.90;;;;;;5033852;28;20097;-66
2022/07/23 06:00:08;;;;;;;0.10;0.10;;;15.20;99.90;;;;;;5032567;28;20041;-67
2022/07/23 06:02:34;;;;;;;0.00;0.00;;;15.20;99.90;;;;;;5031448;28;20120;-67
2022/07/23 06:04:59;;;;;;;0.00;0.00;;;15.30;99.90;;;;;;5036666;28;20079;-67
2022/07/23 06:07:25;;;;;;;0.10;0.10;;;15.30;99.90;;;;;;5035805;28;20079;-67
2022/07/23 06:09:50;;;;;;;0.17;0.17;;;15.40;99.90;;;;;;5038689;28;20041;-67
2022/07/23 06:12:17;;;;;;;0.00;0.00;;;15.50;99.90;;;;;;5031699;28;20449;-67
2022/07/23 06:14:43;;;;;;;0.08;0.08;;;15.50;99.90;;;;;;5035310;28;20080;-67
2022/07/23 06:17:08;;;;;;;0.10;0.10;;;15.50;99.90;;;;;;5047046;28;20064;-67
2022/07/23 06:19:34;;;;;;;0.20;0.20;;;15.60;99.90;;;;;;5046532;28;20072;-67
2022/07/23 06:22:00;;;;;;;0.00;0.00;;;15.70;99.90;;;;;;5035747;28;20619;-67
2022/07/23 06:24:25;;;;;;;0.20;0.20;;;15.70;99.90;;;;;;5032409;28;20049;-67
2022/07/23 06:26:51;;;;;;;0.10;0.10;;;15.70;99.90;;;;;;5034047;28;20087;-67
2022/07/23 06:29:16;;;;;;;0.10;0.10;;;15.80;99.90;;;;;;5039988;28;20045;-67
2022/07/23 06:31:42;;;;;;;0.10;0.10;;;15.90;99.90;;;;;;5033632;28;20091;-67
2022/07/23 06:34:08;;;;;;;0.10;0.10;;;15.90;99.90;;;;;;5038165;28;20049;-67
2022/07/23 06:36:33;;;;;;;0.10;0.10;;;16.00;99.90;;;;;;5037159;28;20048;-66
2022/07/23 06:38:59;;;;;;;0.00;0.00;;;16.10;99.90;;;;;;5044237;28;20052;-67
2022/07/23 06:41:24;;;;;;;0.10;0.10;;;16.20;99.90;;;;;;5048446;28;20040;-67
2022/07/23 06:43:50;;;;;;;0.10;0.10;;;16.20;99.90;;;;;;5037246;28;20076;-67
2022/07/23 06:46:15;;;;;;;0.00;0.00;;;16.30;99.90;;;;;;5036281;28;20040;-67
2022/07/23 06:48:41;;;;;;;0.20;0.20;;;16.30;99.90;;;;;;5035773;28;20629;-67
2022/07/23 06:51:06;;;;;;;0.10;0.10;;;16.40;99.90;;;;;;5042839;28;20094;-67
2022/07/23 06:53:32;;;;;;;0.00;0.00;;;16.40;99.90;;;;;;5049419;28;20060;-67
2022/07/23 06:55:57;;;;;;;0.10;0.10;;;16.50;99.90;;;;;;5033952;28;20037;-67
2022/07/23 06:58:23;;;;;;;0.10;0.10;;;16.60;99.90;;;;;;5041216;28;20056;-67
2022/07/23 07:00:49;;;;;;;0.00;0.00;;;16.60;99.90;;;;;;5033073;28;20045;-69
2022/07/23 07:03:16;;;;;;;0.10;0.10;;;16.70;99.90;;;;;;5039754;28;20564;-68
2022/07/23 07:05:41;;;;;;;0.10;0.10;;;16.80;99.90;;;;;;5046870;28;20044;-68
2022/07/23 07:08:07;;;;;;;0.00;0.00;;;16.80;99.90;;;;;;5046848;28;20048;-68
2022/07/23 07:10:32;;;;;;;0.10;0.10;;;16.90;99.90;;;;;;5047776;28;20044;-68
2022/07/23 07:12:58;;;;;;;0.00;0.00;;;16.90;99.90;;;;;;5040473;28;20048;-68
2022/07/23 07:15:24;;;;;;;0.00;0.00;;;17.00;99.90;;;;;;5043353;28;20033;-68
2022/07/23 07:17:49;;;;;;;0.10;0.10;;;17.00;99.90;;;;;;5038505;28;20049;-67
2022/07/23 07:20:15;;;;;;;0.00;0.00;;;17.00;99.90;;;;;;5044478;28;20088;-67
2022/07/23 07:22:40;;;;;;;0.10;0.10;;;17.00;99.90;;;;;;5035504;28;20041;-66
2022/07/23 07:25:07;;;;;;;0.10;0.10;;;17.10;99.90;;;;;;5042563;28;20091;-67
2022/07/23 07:27:32;;;;;;;0.00;0.00;;;17.10;99.90;;;;;;5049579;28;20476;-67
2022/07/23 07:29:58;;;;;;;0.00;0.00;;;17.10;99.90;;;;;;5041464;28;20069;-68
2022/07/23 07:32:23;;;;;;;0.08;0.08;;;17.10;99.90;;;;;;5047149;28;20041;-68
2022/07/23 07:34:49;;;;;;;0.10;0.10;;;17.20;99.90;;;;;;5050545;28;20052;-67
2022/07/23 07:37:14;;;;;;;0.00;0.00;;;17.20;99.90;;;;;;5042326;28;20109;-67
2022/07/23 07:39:40;;;;;;;0.00;0.00;;;17.20;99.90;;;;;;5043184;28;20048;-67
2022/07/23 07:42:06;;;;;;;0.82;0.82;;;17.20;99.90;;;;;;5032412;28;20104;-68
2022/07/23 07:44:31;;;;;;;0.10;0.10;;;17.20;99.90;;;;;;5040663;28;20590;-68
2022/07/23 07:46:57;;;;;;;0.00;0.00;;;17.20;99.90;;;;;;5048316;28;20068;-68
2022/07/23 07:49:23;;;;;;;0.13;0.13;;;17.20;99.90;;;;;;5052045;28;20049;-68
2022/07/23 07:51:49;;;;;;;0.00;0.00;;;17.20;99.90;;;;;;5031899;28;20053;-68
2022/07/23 07:54:14;;;;;;;0.20;0.20;;;17.20;99.90;;;;;;5033304;28;20052;-68
2022/07/23 07:56:40;;;;;;;0.00;0.00;;;17.30;99.90;;;;;;5042414;28;20053;-68
2022/07/23 07:59:06;;;;;;;0.00;0.00;;;17.30;99.90;;;;;;5036964;28;20057;-68
2022/07/23 08:01:32;;;;;;;0.00;0.00;;;17.30;99.90;;;;;;5047436;28;20128;-68
2022/07/23 08:03:57;;;;;;;0.00;0.00;;;17.20;99.90;;;;;;5049155;28;20044;-67
2022/07/23 08:06:23;;;;;;;0.10;0.10;;;17.20;99.90;;;;;;5043451;28;20041;-68
2022/07/23 08:08:48;;;;;;;0.03;0.03;;;17.20;99.90;;;;;;5030615;28;20128;-68
2022/07/23 08:11:14;;;;;;;0.10;0.10;;;17.20;99.90;;;;;;5030697;28;20049;-68
2022/07/23 08:13:40;;;;;;;0.10;0.10;;;17.20;99.90;;;;;;5030154;28;20052;-68
2022/07/23 08:16:06;;;;;;;0.10;0.10;;;17.30;99.90;;;;;;5049218;28;20075;-68
2022/07/23 08:18:32;;;;;;;0.00;0.00;;;17.30;99.90;;;;;;5049487;28;20084;-68
2022/07/23 08:20:57;;;;;;;0.10;0.10;;;17.30;99.90;;;;;;5042621;28;20103;-68
2022/07/23 08:23:23;;;;;;;0.10;0.10;;;17.20;99.90;;;;;;5033965;28;20090;-68
2022/07/23 08:25:49;;;;;;;0.00;0.00;;;17.20;99.90;;;;;;5032057;28;20106;-68
2022/07/23 08:28:15;;;;;;;0.03;0.03;;;17.20;99.90;;;;;;5027992;28;20405;-68
2022/07/23 08:30:43;;;;;;;0.00;0.00;;;17.10;99.90;;;;;;5051688;28;20041;-68
2022/07/23 08:33:14;;;;;;;0.00;0.00;;;17.10;99.90;;;;;;5043541;28;20041;-68
2022/07/23 08:35:46;;;;;;;0.00;0.00;;;17.10;99.90;;;;;;5038347;28;20052;-68
2022/07/23 08:38:13;;;;;;;0.00;0.00;;;17.10;99.90;;;;;;5051076;28;20045;-68
2022/07/23 08:40:42;;;;;;;0.00;0.00;;;17.10;99.90;;;;;;5033228;28;20111;-68
2022/07/23 08:43:10;;;;;;;0.00;0.00;;;17.10;99.90;;;;;;5047513;28;20053;-68
2022/07/23 08:45:44;;;;;;;0.00;0.00;;;17.10;99.90;;;;;;5033107;28;20041;-68
2022/07/23 08:48:15;;;;;;;0.00;0.00;;;17.10;99.90;;;;;;5032670;28;20477;-67
2022/07/23 08:50:45;;;;;;;0.10;0.10;;;17.10;99.90;;;;;;5048607;28;20045;-67
2022/07/23 08:53:11;;;;;;;0.10;0.10;;;17.20;99.90;;;;;;5053283;28;20488;-67
2022/07/23 08:55:37;;;;;;;0.10;0.10;;;17.20;99.90;;;;;;5049792;28;20041;-67
2022/07/23 08:58:03;;;;;;;0.10;0.10;;;17.30;99.90;;;;;;5052744;28;20459;-67
2022/07/23 09:00:29;;;;;;;0.10;0.10;;;17.30;99.90;;;;;;5051915;28;20052;-68
2022/07/23 09:02:54;;;;;;;0.10;0.10;;;17.40;99.90;;;;;;5049390;28;20103;-67
2022/07/23 09:05:20;;;;;;;0.10;0.10;;;17.60;99.90;;;;;;5032655;28;20073;-67
2022/07/23 09:08:07;;;;;;;0.10;0.10;;;17.80;99.90;;;;;;5031153;28;20047;-67
2022/07/23 09:10:53;;;;;;;0.10;0.10;;;18.10;99.90;;;;;;5049825;28;20049;-68
2022/07/23 09:13:38;;;;;;;0.00;0.00;;;18.20;99.90;;;;;;5058853;28;20084;-67
2022/07/23 09:16:12;;;;;;;0.00;0.00;;;18.50;99.90;;;;;;5034445;28;20053;-68
2022/07/23 09:18:39;;;;;;;0.00;0.00;;;18.60;99.90;;;;;;5038801;28;20045;-67
2022/07/23 09:21:12;;;;;;;0.10;0.10;;;18.50;99.90;;;;;;5034296;28;20440;-67
2022/07/23 09:23:44;;;;;;;0.10;0.10;;;18.40;99.90;;;;;;5039220;28;20045;-67
2022/07/23 09:26:36;;;;;;;0.00;0.00;;;18.30;99.90;;;;;;5036065;28;20041;-67
2022/07/23 09:29:01;;;;;;;0.10;0.10;;;18.20;99.90;;;;;;5051524;28;20071;-67
2022/07/23 09:31:34;;;;;;;0.00;0.00;;;18.20;99.90;;;;;;5042123;28;20037;-67
2022/07/23 09:34:27;;;;;;;0.00;0.00;;;18.20;99.90;;;;;;5040947;28;20099;-67
2022/07/23 09:36:58;;;;;;;0.00;0.00;;;18.30;99.90;;;;;;5045518;28;20057;-67
2022/07/23 09:39:33;;;;;;;0.17;0.17;;;18.50;99.90;;;;;;5040613;28;20164;-67
2022/07/23 09:42:26;;;;;;;0.10;0.10;;;18.80;99.90;;;;;;5038089;28;20045;-68
2022/07/23 09:44:54;;;;;;;0.20;0.20;;;18.80;99.90;;;;;;5037362;28;20053;-67
2022/07/23 09:47:22;;;;;;;0.20;0.20;;;18.80;99.90;;;;;;5045089;28;20124;-67
2022/07/23 09:50:11;;;;;;;0.00;0.00;;;18.70;99.90;;;;;;5048605;28;20049;-67
2022/07/23 09:52:43;;;;;;;1.55;1.05;;;18.70;99.90;;;;;;5052366;28;20148;-67
2022/07/23 09:55:09;;;;;;;0.10;0.10;;;18.60;99.90;;;;;;5052377;28;20065;-67
2022/07/23 09:57:35;;;;;;;0.00;0.00;;;18.60;99.90;;;;;;5039785;28;20055;-67
2022/07/23 10:00:05;;;;;;;0.00;0.00;;;18.70;99.90;;;;;;5031381;28;20416;-67
2022/07/23 10:02:33;;;;;;;0.47;0.47;;;19.10;99.90;;;;;;5032006;28;20052;-67
2022/07/23 10:05:00;;;;;;;0.00;0.00;;;19.40;99.90;;;;;;5031615;28;20129;-67
2022/07/23 10:07:27;;;;;;;0.00;0.00;;;19.50;99.90;;;;;;5032396;28;20046;-67
2022/07/23 10:09:53;;;;;;;0.30;0.30;;;19.20;99.90;;;;;;5031010;28;20054;-67
2022/07/23 10:14:52;;;;;;;0.05;0.05;;;19.40;99.90;;;;;;5031601;28;20057;-67
2022/07/23 10:17:17;;;;;;;0.00;0.00;;;19.40;99.90;;;;;;5050252;28;20056;-67
2022/07/23 10:19:44;;;;;;;0.00;0.00;;;19.40;99.90;;;;;;5051641;28;20056;-67
2022/07/23 10:22:13;;;;;;;0.00;0.00;;;19.50;99.90;;;;;;5049320;28;20091;-67
2022/07/23 10:24:51;;;;;;;0.00;0.00;;;19.90;99.90;;;;;;5031689;28;20089;-67
2022/07/23 10:27:26;;;;;;;0.00;0.00;;;20.30;99.90;;;;;;5031338;28;20889;-67
2022/07/23 10:30:00;;;;;;;0.10;0.10;;;20.30;99.90;;;;;;5032250;28;20041;-67
2022/07/23 10:32:31;;;;;;;0.10;0.10;;;20.80;99.90;;;;;;5045711;28;20484;-67
2022/07/23 10:35:12;;;;;;;0.00;0.00;;;21.30;99.90;;;;;;5031994;28;20076;-67
2022/07/23 10:37:51;;;;;;;0.00;0.00;;;21.60;99.90;;;;;;5031667;28;20045;-67
2022/07/23 10:40:19;;;;;;;0.00;0.00;;;21.50;99.90;;;;;;5048452;28;20041;-67
2022/07/23 10:42:46;;;;;;;0.10;0.10;;;21.50;99.90;;;;;;5051528;28;20535;-67
2022/07/23 10:45:27;;;;;;;0.00;0.00;;;21.70;99.90;;;;;;5037119;28;20128;-67
2022/07/23 10:47:53;;;;;;;0.00;0.00;;;21.70;99.90;;;;;;5030563;28;20095;-67
2022/07/23 10:50:21;;;;;;;0.00;0.00;;;21.60;99.90;;;;;;5051026;28;20435;-67
2022/07/23 10:53:05;;;;;;;0.10;0.10;;;21.60;99.90;;;;;;5051528;28;20203;-67
2022/07/23 10:55:31;;;;;;;0.00;0.00;;;21.70;99.90;;;;;;5048343;28;20052;-67
2022/07/23 10:57:57;;;;;;;3.72;1.65;;;21.70;99.90;;;;;;5051020;28;20107;-67
2022/07/23 11:00:24;;;;;;;0.08;0.08;;;21.90;99.90;;;;;;5048822;28;20449;-67
2022/07/23 11:02:52;;;;;;;0.00;0.00;;;21.80;99.90;;;;;;5044098;28;20081;-67
2022/07/23 11:05:42;;;;;;;0.00;0.00;;;21.60;99.90;;;;;;5030934;28;20050;-67
2022/07/23 11:08:09;;;;;;;0.00;0.00;;;21.60;99.90;;;;;;5032899;28;20120;-67
2022/07/23 11:10:40;;;;;;;0.03;0.03;;;21.90;99.90;;;;;;5050603;28;20443;-67
2022/07/23 11:13:21;;;;;;;0.30;0.30;;;22.00;99.90;;;;;;5050762;28;20041;-67
2022/07/23 11:16:05;;;;;;;1.00;0.55;;;22.00;99.90;;;;;;5030711;28;20042;-67
2022/07/23 11:18:40;;;;;;;0.00;0.00;;;22.30;99.90;;;;;;5030727;28;20060;-67
2022/07/23 11:21:21;;;;;;;0.00;0.00;;;22.70;99.90;;;;;;5030579;28;20049;-67
2022/07/23 11:24:07;;;;;;;0.00;0.00;;;22.40;99.90;;;;;;5029714;28;20116;-67
2022/07/23 11:26:49;;;;;;;0.00;0.00;;;22.50;99.90;;;;;;5029512;28;20050;-67
2022/07/23 11:32:08;;;;;;;0.00;0.00;;;22.90;99.90;;;;;;5050995;28;20124;-67
2022/07/23 11:34:34;;;;;;;0.00;0.00;;;23.00;99.90;;;;;;5030878;28;22453;-67
2022/07/23 11:37:01;;;;;;;0.00;0.00;;;23.00;99.90;;;;;;5049413;28;20107;-67
2022/07/23 11:39:29;;;;;;;0.00;0.00;;;23.00;99.90;;;;;;5050203;28;20427;-68
2022/07/23 11:41:55;;;;;;;0.00;0.00;;;22.90;99.90;;;;;;5050598;28;20366;-67
2022/07/23 11:44:28;;;;;;;0.08;0.08;;;22.90;99.90;;;;;;5032381;28;20052;-67
2022/07/23 11:46:58;;;;;;;0.30;0.30;;;22.90;99.90;;;;;;5030657;28;20060;-68
2022/07/23 11:49:25;;;;;;;1.45;0.32;;;22.90;99.90;;;;;;5029937;28;20120;-68
2022/07/23 11:52:10;;;;;;;0.55;0.55;;;23.20;99.90;;;;;;5035010;28;20118;-68
2022/07/23 11:54:46;;;;;;;0.00;0.00;;;23.30;99.90;;;;;;5050120;28;20088;-68
2022/07/23 11:57:12;;;;;;;0.00;0.00;;;23.40;99.90;;;;;;5043012;28;20487;-68
2022/07/23 11:59:38;;;;;;;0.00;0.00;;;23.90;99.90;;;;;;5029827;28;20050;-68
2022/07/23 12:02:06;;;;;;;1.75;1.17;;;24.10;99.90;;;;;;5030081;28;20084;-68
2022/07/23 12:04:42;;;;;;;0.10;0.10;;;23.50;99.90;;;;;;5028698;28;20049;-68
2022/07/23 12:07:32;;;;;;;0.00;0.00;;;23.00;99.90;;;;;;5028645;28;20049;-67
2022/07/23 12:10:19;;;;;;;0.00;0.00;;;22.70;99.90;;;;;;5030291;28;20483;-68
2022/07/23 12:12:54;;;;;;;0.00;0.00;;;22.90;99.90;;;;;;5035667;28;20057;-67
2022/07/23 12:15:24;;;;;;;0.00;0.00;;;22.60;99.90;;;;;;5049531;28;20057;-68
2022/07/23 12:17:52;;;;;;;0.00;0.00;;;22.50;99.90;;;;;;5049536;28;20124;-68
2022/07/23 12:20:23;;;;;;;0.10;0.10;;;22.40;99.90;;;;;;5049772;28;20053;-67
2022/07/23 12:22:52;;;;;;;0.00;0.00;;;22.90;99.90;;;;;;5031767;28;20374;-67
2022/07/23 12:25:24;;;;;;;0.00;0.00;;;23.50;99.90;;;;;;5029355;28;20080;-68
2022/07/23 12:28:05;;;;;;;0.00;0.00;;;23.80;99.90;;;;;;5030343;28;20404;-68
2022/07/23 12:30:41;;;;;;;0.00;0.00;;;24.00;99.90;;;;;;5041171;28;20087;-68
2022/07/23 12:33:09;;;;;;;0.00;0.00;;;23.80;99.90;;;;;;5042107;28;20432;-68
2022/07/23 12:35:42;;;;;;;0.00;0.00;;;24.30;99.90;;;;;;5029882;28;20128;-68
2022/07/23 12:38:12;;;;;;;0.85;0.40;;;24.30;99.90;;;;;;5029434;28;20077;-68
2022/07/23 12:40:44;;;;;;;0.00;0.00;;;24.30;99.90;;;;;;5044592;28;20850;-68
2022/07/23 12:43:19;;;;;;;0.00;0.00;;;24.50;99.90;;;;;;5049398;28;20377;-68
2022/07/23 12:46:05;;;;;;;0.00;0.00;;;24.50;99.90;;;;;;5049436;28;20045;-68
2022/07/23 12:48:34;;;;;;;0.22;0.20;;;24.70;99.90;;;;;;5031985;28;20038;-68
2022/07/23 12:51:32;;;;;;;0.00;0.00;;;24.90;99.90;;;;;;5026795;28;20065;-68
2022/07/23 12:54:09;;;;;;;0.00;0.00;;;25.60;99.90;;;;;;5024482;28;20493;-68
2022/07/23 12:56:38;;;;;;;0.20;0.20;;;24.70;99.90;;;;;;5045434;28;20578;-68